sensor_id;sensor_type;location;lat;lon;timestamp;P1;durP1;ratioP1;P2;durP2;ratioP2
64938;SDS011;51453;47.738;7.420;2022-07-04T00:00:13;3.80;;;1.10;;
64938;SDS011;51453;47.738;7.420;2022-07-04T00:02:41;5.53;;;1.00;;
64938;SDS011;51453;47.738;7.420;2022-07-04T00:05:08;2.05;;;0.80;;
64938;SDS011;51453;47.738;7.420;2022-07-04T00:07:36;3.85;;;1.00;;
64938;SDS011;51453;47.738;7.420;2022-07-04T00:10:06;5.72;;;1.10;;
64938;SDS011;51453;47.738;7.420;2022-07-04T00:12:33;4.18;;;0.95;;
64938;SDS011;51453;47.738;7.420;2022-07-04T00:14:59;3.75;;;1.00;;
64938;SDS011;51453;47.738;7.420;2022-07-04T00:17:25;2.10;;;0.70;;
64938;SDS011;51453;47.738;7.420;2022-07-04T00:19:51;1.98;;;0.90;;
64938;SDS011;51453;47.738;7.420;2022-07-04T00:22:16;7.63;;;0.70;;
64938;SDS011;51453;47.738;7.420;2022-07-04T00:24:42;4.55;;;0.90;;
64938;SDS011;51453;47.738;7.420;2022-07-04T00:27:08;2.30;;;0.90;;
64938;SDS011;51453;47.738;7.420;2022-07-04T00:29:34;5.72;;;0.85;;
64938;SDS011;51453;47.738;7.420;2022-07-04T00:31:59;4.25;;;0.80;;
64938;SDS011;51453;47.738;7.420;2022-07-04T00:34:26;3.90;;;0.90;;
64938;SDS011;51453;47.738;7.420;2022-07-04T00:36:52;3.13;;;0.70;;
64938;SDS011;51453;47.738;7.420;2022-07-04T00:39:18;4.32;;;0.98;;
64938;SDS011;51453;47.738;7.420;2022-07-04T00:41:44;2.75;;;0.82;;
64938;SDS011;51453;47.738;7.420;2022-07-04T00:44:10;2.50;;;1.00;;
64938;SDS011;51453;47.738;7.420;2022-07-04T00:46:37;3.45;;;0.85;;
64938;SDS011;51453;47.738;7.420;2022-07-04T00:49:04;1.25;;;0.73;;
64938;SDS011;51453;47.738;7.420;2022-07-04T00:51:30;3.60;;;1.00;;
64938;SDS011;51453;47.738;7.420;2022-07-04T00:53:56;1.83;;;0.95;;
64938;SDS011;51453;47.738;7.420;2022-07-04T00:56:23;3.35;;;0.80;;
64938;SDS011;51453;47.738;7.420;2022-07-04T00:58:49;4.00;;;0.90;;
64938;SDS011;51453;47.738;7.420;2022-07-04T01:01:16;1.67;;;0.85;;
64938;SDS011;51453;47.738;7.420;2022-07-04T01:03:42;3.08;;;0.55;;
64938;SDS011;51453;47.738;7.420;2022-07-04T01:06:08;6.28;;;0.90;;
64938;SDS011;51453;47.738;7.420;2022-07-04T01:08:39;4.20;;;0.80;;
64938;SDS011;51453;47.738;7.420;2022-07-04T01:11:06;1.10;;;0.80;;
64938;SDS011;51453;47.738;7.420;2022-07-04T01:13:32;3.10;;;1.30;;
64938;SDS011;51453;47.738;7.420;2022-07-04T01:15:58;1.80;;;0.93;;
64938;SDS011;51453;47.738;7.420;2022-07-04T01:18:24;4.18;;;0.90;;
64938;SDS011;51453;47.738;7.420;2022-07-04T01:20:50;4.95;;;0.80;;
64938;SDS011;51453;47.738;7.420;2022-07-04T01:23:15;2.60;;;1.00;;
64938;SDS011;51453;47.738;7.420;2022-07-04T01:25:41;2.47;;;0.82;;
64938;SDS011;51453;47.738;7.420;2022-07-04T01:28:08;4.05;;;0.80;;
64938;SDS011;51453;47.738;7.420;2022-07-04T01:30:34;3.58;;;0.70;;
64938;SDS011;51453;47.738;7.420;2022-07-04T01:33:01;3.88;;;1.05;;
64938;SDS011;51453;47.738;7.420;2022-07-04T01:35:27;2.45;;;0.70;;
64938;SDS011;51453;47.738;7.420;2022-07-04T01:37:53;2.25;;;0.90;;
64938;SDS011;51453;47.738;7.420;2022-07-04T01:40:18;3.75;;;0.80;;
64938;SDS011;51453;47.738;7.420;2022-07-04T01:42:45;2.50;;;1.00;;
64938;SDS011;51453;47.738;7.420;2022-07-04T01:45:11;3.38;;;1.13;;
64938;SDS011;51453;47.738;7.420;2022-07-04T01:47:37;6.00;;;1.00;;
64938;SDS011;51453;47.738;7.420;2022-07-04T01:50:04;3.65;;;1.10;;
64938;SDS011;51453;47.738;7.420;2022-07-04T01:52:31;4.30;;;1.00;;
64938;SDS011;51453;47.738;7.420;2022-07-04T01:54:57;6.05;;;1.10;;
64938;SDS011;51453;47.738;7.420;2022-07-04T01:57:22;0.80;;;0.80;;
64938;SDS011;51453;47.738;7.420;2022-07-04T01:59:48;3.42;;;1.00;;
64938;SDS011;51453;47.738;7.420;2022-07-04T02:02:33;6.10;;;1.00;;
64938;SDS011;51453;47.738;7.420;2022-07-04T02:04:58;2.83;;;1.00;;
64938;SDS011;51453;47.738;7.420;2022-07-04T02:07:24;2.25;;;1.02;;
64938;SDS011;51453;47.738;7.420;2022-07-04T02:09:50;3.63;;;1.10;;
64938;SDS011;51453;47.738;7.420;2022-07-04T02:12:15;4.00;;;0.90;;
64938;SDS011;51453;47.738;7.420;2022-07-04T02:14:59;0.80;;;0.80;;
64938;SDS011;51453;47.738;7.420;2022-07-04T02:17:25;2.47;;;1.00;;
64938;SDS011;51453;47.738;7.420;2022-07-04T02:19:51;1.58;;;0.80;;
64938;SDS011;51453;47.738;7.420;2022-07-04T02:22:17;1.48;;;0.80;;
64938;SDS011;51453;47.738;7.420;2022-07-04T02:24:42;2.55;;;0.73;;
64938;SDS011;51453;47.738;7.420;2022-07-04T02:27:08;2.17;;;0.63;;
64938;SDS011;51453;47.738;7.420;2022-07-04T02:29:34;1.60;;;0.73;;
64938;SDS011;51453;47.738;7.420;2022-07-04T02:32:00;2.03;;;0.70;;
64938;SDS011;51453;47.738;7.420;2022-07-04T02:34:26;1.70;;;0.60;;
64938;SDS011;51453;47.738;7.420;2022-07-04T02:36:52;1.85;;;0.85;;
64938;SDS011;51453;47.738;7.420;2022-07-04T02:39:18;4.30;;;0.70;;
64938;SDS011;51453;47.738;7.420;2022-07-04T02:41:43;1.15;;;0.82;;
64938;SDS011;51453;47.738;7.420;2022-07-04T02:44:10;5.57;;;1.02;;
64938;SDS011;51453;47.738;7.420;2022-07-04T02:46:36;3.75;;;0.95;;
64938;SDS011;51453;47.738;7.420;2022-07-04T02:49:02;1.40;;;0.80;;
64938;SDS011;51453;47.738;7.420;2022-07-04T02:51:28;2.60;;;0.82;;
64938;SDS011;51453;47.738;7.420;2022-07-04T02:53:54;3.72;;;0.95;;
64938;SDS011;51453;47.738;7.420;2022-07-04T02:56:20;1.45;;;0.82;;
64938;SDS011;51453;47.738;7.420;2022-07-04T02:58:46;2.88;;;1.00;;
64938;SDS011;51453;47.738;7.420;2022-07-04T03:01:12;3.08;;;0.80;;
64938;SDS011;51453;47.738;7.420;2022-07-04T03:03:38;4.85;;;1.33;;
64938;SDS011;51453;47.738;7.420;2022-07-04T03:06:05;2.25;;;0.90;;
64938;SDS011;51453;47.738;7.420;2022-07-04T03:08:33;2.25;;;0.85;;
64938;SDS011;51453;47.738;7.420;2022-07-04T03:10:59;4.32;;;1.15;;
64938;SDS011;51453;47.738;7.420;2022-07-04T03:13:25;2.65;;;1.33;;
64938;SDS011;51453;47.738;7.420;2022-07-04T03:15:52;4.00;;;1.60;;
64938;SDS011;51453;47.738;7.420;2022-07-04T03:18:18;4.80;;;1.63;;
64938;SDS011;51453;47.738;7.420;2022-07-04T03:20:44;4.40;;;1.60;;
64938;SDS011;51453;47.738;7.420;2022-07-04T03:23:10;2.65;;;1.67;;
64938;SDS011;51453;47.738;7.420;2022-07-04T03:25:36;5.18;;;1.92;;
64938;SDS011;51453;47.738;7.420;2022-07-04T03:28:02;7.80;;;1.90;;
64938;SDS011;51453;47.738;7.420;2022-07-04T03:30:28;5.47;;;1.80;;
64938;SDS011;51453;47.738;7.420;2022-07-04T03:32:54;4.03;;;1.65;;
64938;SDS011;51453;47.738;7.420;2022-07-04T03:35:20;4.78;;;2.13;;
64938;SDS011;51453;47.738;7.420;2022-07-04T03:37:46;2.25;;;1.90;;
64938;SDS011;51453;47.738;7.420;2022-07-04T03:40:11;5.00;;;1.80;;
64938;SDS011;51453;47.738;7.420;2022-07-04T03:42:37;4.07;;;1.98;;
64938;SDS011;51453;47.738;7.420;2022-07-04T03:45:03;3.75;;;1.75;;
64938;SDS011;51453;47.738;7.420;2022-07-04T03:47:30;3.17;;;1.65;;
64938;SDS011;51453;47.738;7.420;2022-07-04T03:49:56;5.30;;;1.90;;
64938;SDS011;51453;47.738;7.420;2022-07-04T03:52:22;3.65;;;2.03;;
64938;SDS011;51453;47.738;7.420;2022-07-04T03:54:48;3.08;;;1.90;;
64938;SDS011;51453;47.738;7.420;2022-07-04T03:57:14;3.63;;;1.90;;
64938;SDS011;51453;47.738;7.420;2022-07-04T03:59:39;6.13;;;2.10;;
64938;SDS011;51453;47.738;7.420;2022-07-04T04:02:05;2.75;;;1.85;;
64938;SDS011;51453;47.738;7.420;2022-07-04T04:04:31;4.38;;;1.98;;
64938;SDS011;51453;47.738;7.420;2022-07-04T04:07:15;4.53;;;2.10;;
64938;SDS011;51453;47.738;7.420;2022-07-04T04:09:41;5.18;;;1.70;;
64938;SDS011;51453;47.738;7.420;2022-07-04T04:12:06;7.80;;;1.92;;
64938;SDS011;51453;47.738;7.420;2022-07-04T04:14:32;3.03;;;1.75;;
64938;SDS011;51453;47.738;7.420;2022-07-04T04:16:58;6.05;;;1.75;;
64938;SDS011;51453;47.738;7.420;2022-07-04T04:19:24;5.63;;;1.70;;
64938;SDS011;51453;47.738;7.420;2022-07-04T04:21:49;2.90;;;1.90;;
64938;SDS011;51453;47.738;7.420;2022-07-04T04:24:15;6.88;;;1.88;;
64938;SDS011;51453;47.738;7.420;2022-07-04T04:26:41;2.60;;;1.70;;
64938;SDS011;51453;47.738;7.420;2022-07-04T04:29:07;2.47;;;1.70;;
64938;SDS011;51453;47.738;7.420;2022-07-04T04:31:32;2.72;;;1.85;;
64938;SDS011;51453;47.738;7.420;2022-07-04T04:33:58;4.68;;;1.65;;
64938;SDS011;51453;47.738;7.420;2022-07-04T04:36:24;6.40;;;1.85;;
64938;SDS011;51453;47.738;7.420;2022-07-04T04:38:50;2.75;;;1.33;;
64938;SDS011;51453;47.738;7.420;2022-07-04T04:41:15;5.63;;;1.90;;
64938;SDS011;51453;47.738;7.420;2022-07-04T04:43:41;4.00;;;1.70;;
64938;SDS011;51453;47.738;7.420;2022-07-04T04:46:07;3.03;;;1.85;;
64938;SDS011;51453;47.738;7.420;2022-07-04T04:48:33;2.05;;;1.70;;
64938;SDS011;51453;47.738;7.420;2022-07-04T04:50:59;2.45;;;1.83;;
64938;SDS011;51453;47.738;7.420;2022-07-04T04:53:25;5.13;;;1.70;;
64938;SDS011;51453;47.738;7.420;2022-07-04T04:55:52;3.35;;;1.70;;
64938;SDS011;51453;47.738;7.420;2022-07-04T04:58:19;3.55;;;1.90;;
64938;SDS011;51453;47.738;7.420;2022-07-04T05:00:45;5.72;;;1.95;;
64938;SDS011;51453;47.738;7.420;2022-07-04T05:03:11;5.00;;;1.95;;
64938;SDS011;51453;47.738;7.420;2022-07-04T05:05:36;4.35;;;2.03;;
64938;SDS011;51453;47.738;7.420;2022-07-04T05:08:02;3.97;;;1.90;;
64938;SDS011;51453;47.738;7.420;2022-07-04T05:10:28;2.63;;;1.90;;
64938;SDS011;51453;47.738;7.420;2022-07-04T05:12:54;3.97;;;1.75;;
64938;SDS011;51453;47.738;7.420;2022-07-04T05:15:20;3.53;;;2.00;;
64938;SDS011;51453;47.738;7.420;2022-07-04T05:17:46;3.42;;;1.70;;
64938;SDS011;51453;47.738;7.420;2022-07-04T05:20:12;2.50;;;1.77;;
64938;SDS011;51453;47.738;7.420;2022-07-04T05:22:38;8.68;;;2.22;;
64938;SDS011;51453;47.738;7.420;2022-07-04T05:25:04;2.13;;;1.92;;
64938;SDS011;51453;47.738;7.420;2022-07-04T05:27:30;3.72;;;1.80;;
64938;SDS011;51453;47.738;7.420;2022-07-04T05:29:56;4.45;;;1.90;;
64938;SDS011;51453;47.738;7.420;2022-07-04T05:32:23;4.60;;;1.65;;
64938;SDS011;51453;47.738;7.420;2022-07-04T05:34:50;2.00;;;1.45;;
64938;SDS011;51453;47.738;7.420;2022-07-04T05:37:16;2.70;;;1.30;;
64938;SDS011;51453;47.738;7.420;2022-07-04T05:39:42;3.55;;;1.60;;
64938;SDS011;51453;47.738;7.420;2022-07-04T05:42:08;3.15;;;1.40;;
64938;SDS011;51453;47.738;7.420;2022-07-04T05:44:33;2.20;;;1.73;;
64938;SDS011;51453;47.738;7.420;2022-07-04T05:46:59;3.28;;;1.27;;
64938;SDS011;51453;47.738;7.420;2022-07-04T05:49:25;4.70;;;1.17;;
64938;SDS011;51453;47.738;7.420;2022-07-04T05:51:51;3.55;;;1.05;;
64938;SDS011;51453;47.738;7.420;2022-07-04T05:54:17;1.77;;;1.10;;
64938;SDS011;51453;47.738;7.420;2022-07-04T05:56:42;2.10;;;1.00;;
64938;SDS011;51453;47.738;7.420;2022-07-04T05:59:08;1.73;;;1.00;;
64938;SDS011;51453;47.738;7.420;2022-07-04T06:01:35;2.53;;;0.93;;
64938;SDS011;51453;47.738;7.420;2022-07-04T06:04:02;2.83;;;1.23;;
64938;SDS011;51453;47.738;7.420;2022-07-04T06:06:28;1.20;;;1.00;;
64938;SDS011;51453;47.738;7.420;2022-07-04T06:08:55;1.77;;;1.25;;
64938;SDS011;51453;47.738;7.420;2022-07-04T06:11:21;6.00;;;1.33;;
64938;SDS011;51453;47.738;7.420;2022-07-04T06:13:47;4.20;;;0.98;;
64938;SDS011;51453;47.738;7.420;2022-07-04T06:16:13;3.33;;;1.05;;
64938;SDS011;51453;47.738;7.420;2022-07-04T06:18:39;3.08;;;1.00;;
64938;SDS011;51453;47.738;7.420;2022-07-04T06:21:05;2.15;;;1.08;;
64938;SDS011;51453;47.738;7.420;2022-07-04T06:23:31;2.60;;;1.00;;
64938;SDS011;51453;47.738;7.420;2022-07-04T06:25:57;3.75;;;1.10;;
64938;SDS011;51453;47.738;7.420;2022-07-04T06:28:22;4.88;;;1.30;;
64938;SDS011;51453;47.738;7.420;2022-07-04T06:30:48;3.05;;;1.25;;
64938;SDS011;51453;47.738;7.420;2022-07-04T06:33:14;6.07;;;1.30;;
64938;SDS011;51453;47.738;7.420;2022-07-04T06:35:40;2.72;;;1.25;;
64938;SDS011;51453;47.738;7.420;2022-07-04T06:38:14;3.15;;;1.70;;
64938;SDS011;51453;47.738;7.420;2022-07-04T06:40:41;4.50;;;2.00;;
64938;SDS011;51453;47.738;7.420;2022-07-04T06:43:07;5.97;;;2.10;;
64938;SDS011;51453;47.738;7.420;2022-07-04T06:45:33;5.50;;;2.50;;
64938;SDS011;51453;47.738;7.420;2022-07-04T06:48:00;3.03;;;1.80;;
64938;SDS011;51453;47.738;7.420;2022-07-04T06:50:26;6.38;;;1.83;;
64938;SDS011;51453;47.738;7.420;2022-07-04T06:52:52;3.72;;;2.00;;
64938;SDS011;51453;47.738;7.420;2022-07-04T06:55:17;4.55;;;1.80;;
64938;SDS011;51453;47.738;7.420;2022-07-04T06:57:43;3.78;;;1.92;;
64938;SDS011;51453;47.738;7.420;2022-07-04T07:00:09;4.28;;;1.73;;
64938;SDS011;51453;47.738;7.420;2022-07-04T07:02:36;5.38;;;1.45;;
64938;SDS011;51453;47.738;7.420;2022-07-04T07:05:02;5.35;;;1.00;;
64938;SDS011;51453;47.738;7.420;2022-07-04T07:07:29;2.33;;;1.33;;
64938;SDS011;51453;47.738;7.420;2022-07-04T07:09:55;3.55;;;1.00;;
64938;SDS011;51453;47.738;7.420;2022-07-04T07:12:21;2.83;;;1.38;;
64938;SDS011;51453;47.738;7.420;2022-07-04T07:14:48;6.22;;;1.40;;
64938;SDS011;51453;47.738;7.420;2022-07-04T07:17:15;2.00;;;1.00;;
64938;SDS011;51453;47.738;7.420;2022-07-04T07:19:41;3.20;;;1.00;;
64938;SDS011;51453;47.738;7.420;2022-07-04T07:22:08;2.70;;;1.00;;
64938;SDS011;51453;47.738;7.420;2022-07-04T07:24:34;2.67;;;1.30;;
64938;SDS011;51453;47.738;7.420;2022-07-04T07:27:00;5.75;;;1.33;;
64938;SDS011;51453;47.738;7.420;2022-07-04T07:29:26;8.43;;;2.47;;
64938;SDS011;51453;47.738;7.420;2022-07-04T07:31:51;2.53;;;1.10;;
64938;SDS011;51453;47.738;7.420;2022-07-04T07:34:17;4.95;;;1.30;;
64938;SDS011;51453;47.738;7.420;2022-07-04T07:36:43;2.72;;;1.00;;
64938;SDS011;51453;47.738;7.420;2022-07-04T07:39:09;4.50;;;1.08;;
64938;SDS011;51453;47.738;7.420;2022-07-04T07:41:34;3.08;;;1.10;;
64938;SDS011;51453;47.738;7.420;2022-07-04T07:44:00;4.35;;;1.10;;
64938;SDS011;51453;47.738;7.420;2022-07-04T07:46:26;3.38;;;0.90;;
64938;SDS011;51453;47.738;7.420;2022-07-04T07:48:52;2.22;;;1.40;;
64938;SDS011;51453;47.738;7.420;2022-07-04T07:51:17;3.80;;;1.10;;
64938;SDS011;51453;47.738;7.420;2022-07-04T07:53:43;4.20;;;1.02;;
64938;SDS011;51453;47.738;7.420;2022-07-04T07:56:09;4.38;;;1.00;;
64938;SDS011;51453;47.738;7.420;2022-07-04T07:58:35;4.22;;;1.67;;
64938;SDS011;51453;47.738;7.420;2022-07-04T08:01:00;2.45;;;1.08;;
64938;SDS011;51453;47.738;7.420;2022-07-04T08:03:27;5.57;;;1.10;;
64938;SDS011;51453;47.738;7.420;2022-07-04T08:06:12;2.83;;;1.30;;
64938;SDS011;51453;47.738;7.420;2022-07-04T08:08:38;2.95;;;1.30;;
64938;SDS011;51453;47.738;7.420;2022-07-04T08:11:05;2.40;;;1.13;;
64938;SDS011;51453;47.738;7.420;2022-07-04T08:13:31;6.57;;;1.20;;
64938;SDS011;51453;47.738;7.420;2022-07-04T08:15:57;4.25;;;1.23;;
64938;SDS011;51453;47.738;7.420;2022-07-04T08:18:22;5.82;;;1.27;;
64938;SDS011;51453;47.738;7.420;2022-07-04T08:20:51;2.60;;;1.00;;
64938;SDS011;51453;47.738;7.420;2022-07-04T08:23:17;4.60;;;1.05;;
64938;SDS011;51453;47.738;7.420;2022-07-04T08:25:43;1.05;;;0.88;;
64938;SDS011;51453;47.738;7.420;2022-07-04T08:28:08;3.28;;;1.10;;
64938;SDS011;51453;47.738;7.420;2022-07-04T08:30:34;4.07;;;1.20;;
64938;SDS011;51453;47.738;7.420;2022-07-04T08:33:00;1.67;;;1.10;;
64938;SDS011;51453;47.738;7.420;2022-07-04T08:35:26;2.58;;;1.30;;
64938;SDS011;51453;47.738;7.420;2022-07-04T08:37:52;2.10;;;1.20;;
64938;SDS011;51453;47.738;7.420;2022-07-04T08:40:24;4.70;;;1.35;;
64938;SDS011;51453;47.738;7.420;2022-07-04T08:42:54;4.07;;;1.30;;
64938;SDS011;51453;47.738;7.420;2022-07-04T08:45:27;2.65;;;1.27;;
64938;SDS011;51453;47.738;7.420;2022-07-04T08:48:01;3.20;;;0.90;;
64938;SDS011;51453;47.738;7.420;2022-07-04T08:50:30;4.60;;;1.08;;
64938;SDS011;51453;47.738;7.420;2022-07-04T08:52:59;4.75;;;1.38;;
64938;SDS011;51453;47.738;7.420;2022-07-04T08:55:27;2.08;;;1.30;;
64938;SDS011;51453;47.738;7.420;2022-07-04T08:58:12;3.97;;;1.17;;
64938;SDS011;51453;47.738;7.420;2022-07-04T09:00:51;4.32;;;1.20;;
64938;SDS011;51453;47.738;7.420;2022-07-04T09:03:25;2.85;;;1.02;;
64938;SDS011;51453;47.738;7.420;2022-07-04T09:05:52;3.33;;;1.35;;
64938;SDS011;51453;47.738;7.420;2022-07-04T09:08:18;1.92;;;1.13;;
64938;SDS011;51453;47.738;7.420;2022-07-04T09:10:44;3.63;;;1.13;;
64938;SDS011;51453;47.738;7.420;2022-07-04T09:13:10;1.70;;;1.00;;
64938;SDS011;51453;47.738;7.420;2022-07-04T09:15:37;3.90;;;1.23;;
64938;SDS011;51453;47.738;7.420;2022-07-04T09:18:04;4.38;;;1.30;;
64938;SDS011;51453;47.738;7.420;2022-07-04T09:20:30;3.47;;;1.30;;
64938;SDS011;51453;47.738;7.420;2022-07-04T09:22:57;4.65;;;1.15;;
64938;SDS011;51453;47.738;7.420;2022-07-04T09:25:24;2.92;;;1.23;;
64938;SDS011;51453;47.738;7.420;2022-07-04T09:27:51;1.88;;;1.30;;
64938;SDS011;51453;47.738;7.420;2022-07-04T09:30:19;8.02;;;1.45;;
64938;SDS011;51453;47.738;7.420;2022-07-04T09:32:50;1.70;;;1.10;;
64938;SDS011;51453;47.738;7.420;2022-07-04T09:35:22;1.92;;;1.08;;
64938;SDS011;51453;47.738;7.420;2022-07-04T09:37:50;2.35;;;1.08;;
64938;SDS011;51453;47.738;7.420;2022-07-04T09:42:45;2.78;;;1.10;;
64938;SDS011;51453;47.738;7.420;2022-07-04T09:45:11;2.83;;;1.20;;
64938;SDS011;51453;47.738;7.420;2022-07-04T09:47:40;3.17;;;1.08;;
64938;SDS011;51453;47.738;7.420;2022-07-04T09:50:10;1.75;;;1.13;;
64938;SDS011;51453;47.738;7.420;2022-07-04T09:55:28;2.65;;;1.08;;
64938;SDS011;51453;47.738;7.420;2022-07-04T09:57:59;2.97;;;1.20;;
64938;SDS011;51453;47.738;7.420;2022-07-04T10:00:30;0.98;;;0.90;;
64938;SDS011;51453;47.738;7.420;2022-07-04T10:03:15;1.75;;;1.17;;
64938;SDS011;51453;47.738;7.420;2022-07-04T10:08:28;4.50;;;1.20;;
64938;SDS011;51453;47.738;7.420;2022-07-04T10:10:57;1.75;;;1.00;;
64938;SDS011;51453;47.738;7.420;2022-07-04T10:13:26;2.17;;;1.20;;
64938;SDS011;51453;47.738;7.420;2022-07-04T10:15:53;4.13;;;1.25;;
64938;SDS011;51453;47.738;7.420;2022-07-04T10:18:19;3.38;;;1.30;;
64938;SDS011;51453;47.738;7.420;2022-07-04T10:20:46;3.13;;;1.30;;
64938;SDS011;51453;47.738;7.420;2022-07-04T10:23:16;2.23;;;1.30;;
64938;SDS011;51453;47.738;7.420;2022-07-04T10:25:45;1.52;;;1.30;;
64938;SDS011;51453;47.738;7.420;2022-07-04T10:28:11;2.15;;;1.08;;
64938;SDS011;51453;47.738;7.420;2022-07-04T10:30:37;3.28;;;1.48;;
64938;SDS011;51453;47.738;7.420;2022-07-04T10:33:06;9.35;;;1.75;;
64938;SDS011;51453;47.738;7.420;2022-07-04T10:35:50;1.13;;;1.00;;
64938;SDS011;51453;47.738;7.420;2022-07-04T10:38:19;2.63;;;1.13;;
64938;SDS011;51453;47.738;7.420;2022-07-04T10:45:51;1.80;;;1.10;;
64938;SDS011;51453;47.738;7.420;2022-07-04T10:48:23;3.63;;;1.20;;
64938;SDS011;51453;47.738;7.420;2022-07-04T10:53:31;2.72;;;1.10;;
64938;SDS011;51453;47.738;7.420;2022-07-04T10:58:43;4.03;;;1.10;;
64938;SDS011;51453;47.738;7.420;2022-07-04T11:01:12;3.50;;;1.20;;
64938;SDS011;51453;47.738;7.420;2022-07-04T11:03:45;3.10;;;1.30;;
64938;SDS011;51453;47.738;7.420;2022-07-04T11:06:49;3.40;;;1.13;;
64938;SDS011;51453;47.738;7.420;2022-07-04T11:17:01;3.30;;;1.02;;
64938;SDS011;51453;47.738;7.420;2022-07-04T11:19:27;1.98;;;1.15;;
64938;SDS011;51453;47.738;7.420;2022-07-04T11:22:00;4.20;;;1.13;;
64938;SDS011;51453;47.738;7.420;2022-07-04T11:24:26;2.33;;;1.30;;
64938;SDS011;51453;47.738;7.420;2022-07-04T11:26:53;4.45;;;1.40;;
64938;SDS011;51453;47.738;7.420;2022-07-04T11:29:18;2.10;;;1.20;;
64938;SDS011;51453;47.738;7.420;2022-07-04T11:31:45;5.25;;;1.50;;
64938;SDS011;51453;47.738;7.420;2022-07-04T11:34:13;4.50;;;1.48;;
64938;SDS011;51453;47.738;7.420;2022-07-04T11:36:40;3.42;;;1.63;;
64938;SDS011;51453;47.738;7.420;2022-07-04T11:39:08;2.35;;;1.20;;
64938;SDS011;51453;47.738;7.420;2022-07-04T11:41:39;4.88;;;1.33;;
64938;SDS011;51453;47.738;7.420;2022-07-04T11:44:25;3.80;;;1.30;;
64938;SDS011;51453;47.738;7.420;2022-07-04T11:47:24;3.15;;;1.38;;
64938;SDS011;51453;47.738;7.420;2022-07-04T11:49:58;3.72;;;1.40;;
64938;SDS011;51453;47.738;7.420;2022-07-04T11:52:25;3.50;;;1.20;;
64938;SDS011;51453;47.738;7.420;2022-07-04T11:54:55;1.55;;;1.17;;
64938;SDS011;51453;47.738;7.420;2022-07-04T11:57:23;3.42;;;1.33;;
64938;SDS011;51453;47.738;7.420;2022-07-04T12:00:02;1.40;;;1.13;;
64938;SDS011;51453;47.738;7.420;2022-07-04T12:02:29;4.30;;;1.13;;
64938;SDS011;51453;47.738;7.420;2022-07-04T12:04:56;4.90;;;1.27;;
64938;SDS011;51453;47.738;7.420;2022-07-04T12:07:23;3.05;;;1.40;;
64938;SDS011;51453;47.738;7.420;2022-07-04T12:09:50;4.40;;;1.23;;
64938;SDS011;51453;47.738;7.420;2022-07-04T12:12:17;2.08;;;1.20;;
64938;SDS011;51453;47.738;7.420;2022-07-04T12:15:03;2.50;;;1.20;;
64938;SDS011;51453;47.738;7.420;2022-07-04T12:17:34;3.53;;;1.30;;
64938;SDS011;51453;47.738;7.420;2022-07-04T12:25:23;2.22;;;1.10;;
64938;SDS011;51453;47.738;7.420;2022-07-04T12:30:33;5.30;;;1.40;;
64938;SDS011;51453;47.738;7.420;2022-07-04T12:33:22;1.23;;;0.98;;
64938;SDS011;51453;47.738;7.420;2022-07-04T12:35:50;2.40;;;1.15;;
64938;SDS011;51453;47.738;7.420;2022-07-04T12:43:20;1.73;;;1.00;;
64938;SDS011;51453;47.738;7.420;2022-07-04T12:46:12;5.38;;;1.10;;
64938;SDS011;51453;47.738;7.420;2022-07-04T12:48:52;5.35;;;1.30;;
64938;SDS011;51453;47.738;7.420;2022-07-04T12:51:19;1.33;;;1.13;;
64938;SDS011;51453;47.738;7.420;2022-07-04T12:53:47;1.33;;;0.93;;
64938;SDS011;51453;47.738;7.420;2022-07-04T12:59:27;6.88;;;1.10;;
64938;SDS011;51453;47.738;7.420;2022-07-04T13:01:53;9.40;;;1.10;;
64938;SDS011;51453;47.738;7.420;2022-07-04T13:04:19;1.10;;;1.00;;
64938;SDS011;51453;47.738;7.420;2022-07-04T13:06:44;5.03;;;1.17;;
64938;SDS011;51453;47.738;7.420;2022-07-04T13:09:11;6.57;;;1.10;;
64938;SDS011;51453;47.738;7.420;2022-07-04T13:11:37;2.67;;;1.20;;
64938;SDS011;51453;47.738;7.420;2022-07-04T13:14:21;4.18;;;1.20;;
64938;SDS011;51453;47.738;7.420;2022-07-04T13:16:47;2.65;;;1.20;;
64938;SDS011;51453;47.738;7.420;2022-07-04T13:19:13;5.90;;;1.48;;
64938;SDS011;51453;47.738;7.420;2022-07-04T13:21:39;5.25;;;1.30;;
64938;SDS011;51453;47.738;7.420;2022-07-04T13:24:04;3.50;;;1.30;;
64938;SDS011;51453;47.738;7.420;2022-07-04T13:26:31;5.32;;;1.40;;
64938;SDS011;51453;47.738;7.420;2022-07-04T13:28:57;2.90;;;1.33;;
64938;SDS011;51453;47.738;7.420;2022-07-04T13:31:23;7.18;;;1.55;;
64938;SDS011;51453;47.738;7.420;2022-07-04T13:33:49;3.05;;;1.08;;
64938;SDS011;51453;47.738;7.420;2022-07-04T13:36:14;2.35;;;1.30;;
64938;SDS011;51453;47.738;7.420;2022-07-04T13:38:40;2.25;;;1.25;;
64938;SDS011;51453;47.738;7.420;2022-07-04T13:41:06;4.68;;;1.10;;
64938;SDS011;51453;47.738;7.420;2022-07-04T13:43:32;3.35;;;1.40;;
64938;SDS011;51453;47.738;7.420;2022-07-04T13:45:58;3.97;;;1.58;;
64938;SDS011;51453;47.738;7.420;2022-07-04T13:48:23;2.80;;;1.20;;
64938;SDS011;51453;47.738;7.420;2022-07-04T13:50:49;3.08;;;1.13;;
64938;SDS011;51453;47.738;7.420;2022-07-04T13:53:15;3.45;;;1.20;;
64938;SDS011;51453;47.738;7.420;2022-07-04T13:55:41;2.25;;;1.30;;
64938;SDS011;51453;47.738;7.420;2022-07-04T13:58:09;2.13;;;1.33;;
64938;SDS011;51453;47.738;7.420;2022-07-04T14:00:35;4.63;;;1.23;;
64938;SDS011;51453;47.738;7.420;2022-07-04T14:03:02;2.30;;;1.10;;
64938;SDS011;51453;47.738;7.420;2022-07-04T14:05:28;2.38;;;1.13;;
64938;SDS011;51453;47.738;7.420;2022-07-04T14:07:54;4.20;;;1.40;;
64938;SDS011;51453;47.738;7.420;2022-07-04T14:10:20;2.45;;;1.20;;
64938;SDS011;51453;47.738;7.420;2022-07-04T14:12:46;2.85;;;1.23;;
64938;SDS011;51453;47.738;7.420;2022-07-04T14:15:12;5.63;;;1.20;;
64938;SDS011;51453;47.738;7.420;2022-07-04T14:17:38;3.42;;;1.13;;
64938;SDS011;51453;47.738;7.420;2022-07-04T14:20:05;2.65;;;1.30;;
64938;SDS011;51453;47.738;7.420;2022-07-04T14:22:33;8.90;;;1.17;;
64938;SDS011;51453;47.738;7.420;2022-07-04T14:24:59;2.95;;;1.10;;
64938;SDS011;51453;47.738;7.420;2022-07-04T14:27:25;2.08;;;1.30;;
64938;SDS011;51453;47.738;7.420;2022-07-04T14:29:51;6.40;;;1.27;;
64938;SDS011;51453;47.738;7.420;2022-07-04T14:32:17;1.98;;;1.30;;
64938;SDS011;51453;47.738;7.420;2022-07-04T14:34:42;3.42;;;1.20;;
64938;SDS011;51453;47.738;7.420;2022-07-04T14:37:08;2.53;;;1.02;;
64938;SDS011;51453;47.738;7.420;2022-07-04T14:39:34;2.70;;;1.30;;
64938;SDS011;51453;47.738;7.420;2022-07-04T14:42:00;4.65;;;1.30;;
64938;SDS011;51453;47.738;7.420;2022-07-04T14:44:25;1.67;;;1.30;;
64938;SDS011;51453;47.738;7.420;2022-07-04T14:46:51;1.58;;;1.20;;
64938;SDS011;51453;47.738;7.420;2022-07-04T14:49:17;4.63;;;1.35;;
64938;SDS011;51453;47.738;7.420;2022-07-04T14:51:43;7.18;;;1.52;;
64938;SDS011;51453;47.738;7.420;2022-07-04T14:54:09;3.42;;;1.15;;
64938;SDS011;51453;47.738;7.420;2022-07-04T14:56:35;3.15;;;1.15;;
64938;SDS011;51453;47.738;7.420;2022-07-04T14:59:02;1.90;;;1.20;;
64938;SDS011;51453;47.738;7.420;2022-07-04T15:01:29;1.88;;;1.17;;
64938;SDS011;51453;47.738;7.420;2022-07-04T15:03:54;3.85;;;1.17;;
64938;SDS011;51453;47.738;7.420;2022-07-04T15:06:20;3.00;;;1.15;;
64938;SDS011;51453;47.738;7.420;2022-07-04T15:08:46;2.00;;;1.13;;
64938;SDS011;51453;47.738;7.420;2022-07-04T15:11:13;3.80;;;1.45;;
64938;SDS011;51453;47.738;7.420;2022-07-04T15:13:39;4.40;;;1.40;;
64938;SDS011;51453;47.738;7.420;2022-07-04T15:16:05;3.58;;;1.38;;
64938;SDS011;51453;47.738;7.420;2022-07-04T15:18:31;2.75;;;1.10;;
64938;SDS011;51453;47.738;7.420;2022-07-04T15:20:57;3.10;;;1.38;;
64938;SDS011;51453;47.738;7.420;2022-07-04T15:23:41;2.47;;;1.17;;
64938;SDS011;51453;47.738;7.420;2022-07-04T15:26:25;1.88;;;1.33;;
64938;SDS011;51453;47.738;7.420;2022-07-04T15:28:51;2.78;;;1.40;;
64938;SDS011;51453;47.738;7.420;2022-07-04T15:31:17;5.13;;;1.30;;